Aviation Digital Data Service (ADDS)

Output produced by METARs form (0322 UTC 26 March 2017)
found at http://www.aviationweather.gov/adds/metars/
 
KUNV 260315Z AUTO 04006KT 10SM CLR 06/04 A3026 RMK AO2 T00600038
KUNV 260255Z AUTO 03004KT 10SM CLR 07/04 A3027 RMK AO2 T00650040
KUNV 260235Z AUTO 02006KT 10SM CLR 07/04 A3026 RMK AO2 T00700042
KUNV 260215Z AUTO 02006KT 10SM CLR 07/04 A3026 RMK AO2 T00740044
KUNV 260053Z 04008KT 10SM SCT050 08/05 A3026
KUNV 252353Z 04005KT 10SM SCT060 BKN090 09/06 A3024
KUNV 252253Z 05006KT 10SM SCT060 BKN090 10/06 A3022
KUNV 252153Z 06010KT 10SM BKN049 OVC060 11/08 A3021
KUNV 252053Z 06020KT 10SM BKN048 OVC055 12/08 A3020
KUNV 252027Z 07018G22KT 10SM SCT050 BKN065 OVC075 20/10 A3016
KUNV 251953Z 24006KT 10SM SCT050 BKN060 OVC085 22/12 A3014
KUNV 251853Z 26007KT 10SM SCT060 OVC070 21/12 A3015
KUNV 251753Z 24009KT 10SM BKN048 OVC060 20/12 A3016
KUNV 251653Z 25008KT 10SM BKN042 BKN047 OVC060 19/11 A3015
KUNV 251553Z 26011KT 10SM BKN042 BKN050 OVC060 19/11 A3015
KUNV 251453Z 26009G17KT 10SM OVC041 18/11 A3015
KUNV 251353Z 24007KT 10SM SCT043 SCT120 18/11 A3014
KUNV 251253Z 26008G15KT 10SM SCT055 17/11 A3014
KUNV 251153Z 27007KT 10SM BKN055 17/11 A3012
KUNV 251053Z 25008KT 10SM SKC 17/10 A3011
KUNV 250953Z 25009KT 10SM SKC 17/10 A3010
KUNV 250935Z AUTO 24009KT 10SM CLR 17/11 A3010 RMK AO2 T01680105
KUNV 250915Z AUTO 22005KT 10SM CLR 17/11 A3010 RMK AO2 T01710105
KUNV 250855Z AUTO 21005KT 10SM CLR 16/10 A3010 RMK AO2 T01620104
KUNV 250835Z AUTO 20005KT 10SM CLR 16/10 A3009 RMK AO2 T01640103
KUNV 250815Z AUTO 20003KT 10SM CLR 16/10 A3009 RMK AO2 T01570101
KUNV 250755Z AUTO 00000KT 10SM CLR 15/10 A3009 RMK AO2 T01490100
KUNV 250735Z AUTO 00000KT 10SM CLR 15/10 A3009 RMK AO2 T01530101
KUNV 250715Z AUTO 00000KT 10SM CLR 15/10 A3009 RMK AO2 T01520101
KUNV 250655Z AUTO 22005KT 10SM CLR 15/10 A3010 RMK AO2 T01480098
KUNV 250635Z AUTO 22005KT 10SM CLR 15/10 A3010 RMK AO2 T01500101
KUNV 250615Z AUTO 23003KT 10SM CLR 16/10 A3010 RMK AO2 T01550100
KUNV 250555Z AUTO 20003KT 10SM CLR 15/10 A3010 RMK AO2 T01510097 10163 20125
KUNV 250535Z AUTO 23008KT 10SM CLR 15/10 A3010 RMK AO2 T01530098
KUNV 250515Z AUTO 23007KT 10SM CLR 15/10 A3010 RMK AO2 T01540096
KUNV 250455Z AUTO 22006KT 10SM CLR 15/09 A3010 RMK AO2 T01530094
KUNV 250435Z AUTO 22004KT 10SM CLR 15/09 A3010 RMK AO2 T01500092
KUNV 250415Z AUTO 21005KT 10SM CLR 16/09 A3010 RMK AO2 T01550093
KUNV 250355Z AUTO 23009KT 10SM CLR 16/10 A3010 RMK AO2 T01570095 401700008
KUNV 250335Z AUTO 22008KT 10SM CLR 15/09 A3010 RMK AO2 T01540092
KUNV 250315Z AUTO 22009KT 10SM CLR 14/09 A3010 RMK AO2 T01410087
KUNV 250255Z AUTO 20004KT 10SM CLR 13/07 A3010 RMK AO2 T01250070
KUNV 250235Z AUTO 20006KT 10SM CLR 13/07 A3010 RMK AO2 T01340072
KUNV 250215Z AUTO 20005KT 10SM CLR 13/07 A3010 RMK AO2 T01330069
KUNV 250053Z 00000KT 10SM SKC 14/07 A3008
KUNV 242353Z 00000KT 10SM SKC 14/06 A3005
KUNV 242253Z 18010KT 10SM SKC 16/07 A3004
KUNV 242153Z 20008KT 10SM SKC 17/07 A3004
KUNV 242053Z 21011KT 10SM SKC 17/07 A3006
KUNV 241953Z 21011KT 10SM SKC 16/06 A3009
KUNV 241853Z 21009KT 10SM SKC 14/05 A3012
KUNV 241753Z 21007KT 10SM SCT075 OVC090 11/03 A3016
KUNV 241653Z COR 22009KT 10SM SCT065 BKN080 10/03 A3018
KUNV 241553Z 22011G16KT 10SM SCT050 07/02 A3022